Oasis of the Seas — C6XS7 — position and weather

sailwx.info

Track history (hours):
 
Tides and Currents Weather Stations Pressure Air Temp Water Temp Dewpoint Dewpoint Depression Visibility Wind Speed Wind Dir Waves Ship Positions

Oasis of the Seas

Last reported at 2020-Jan-24 00:04 UTC. Time now 2020-Jan-24 02:10 UTC.
Position N 18°10' W 063°25'.

Length 58 m; draft 2.6 m.

Type: Pleasure craft. MMSI: 311020600.

Date/timePositionNaut miles runAvg speedWind from/ knotsBaromVisibWave heightAir tempDewpointWater temp
2020-Jan-24 00:04N 18°10' W 063°25'1220.0
2020-Jan-23 23:29N 18°03' W 063°15'12 6.9
2020-Jan-23 21:46N 18°01' W 063°03'0 0.0
2020-Jan-23 16:22N 18°01' W 063°03'0 0.0
2020-Jan-23 15:22N 18°01' W 063°03'1410.2
2020-Jan-23 13:58N 18°01' W 063°18'9222.9
2020-Jan-23 09:58N 18°10' W 064°54'  
2020-Jan-20 01:21N 25°40' W 079°57'515.2
2020-Jan-20 01:00N 25°43' W 080°02'8 5.0
2020-Jan-19 23:29N 25°46' W 080°09'0 0.0
2020-Jan-19 20:58N 25°46' W 080°09'0 0.0
2020-Jan-19 18:58N 25°46' W 080°09'0 0.0
2020-Jan-19 18:28N 25°46' W 080°09'0 0.0
2020-Jan-19 16:28N 25°46' W 080°09'0 0.0
2020-Jan-19 12:58N 25°46' W 080°09'0 0.0
2020-Jan-19 10:52N 25°46' W 080°09'0 0.0
2020-Jan-19 10:22N 25°46' W 080°09'0 0.0
2020-Jan-19 09:52N 25°46' W 080°09'0 0.0
2020-Jan-19 08:30N 25°46' W 080°09'13 6.5
2020-Jan-19 06:30N 25°42' W 079°56'49016.4
2020-Jan-18 00:34N 20°39' W 086°54'1018.0
2020-Jan-18 00:00N 20°30' W 086°59'1 0.4
2020-Jan-17 19:58N 20°29' W 086°59'0 0.0
2020-Jan-17 18:28N 20°29' W 086°59'0 0.0
2020-Jan-17 17:28N 20°29' W 086°59'0 0.0
2020-Jan-17 16:28N 20°29' W 086°59'0 0.0
2020-Jan-17 14:58N 20°29' W 086°59'9 2.6
2020-Jan-17 11:30N 20°37' W 086°55'32714.6
2020-Jan-16 13:00N 19°09' W 081°19'815.9
2020-Jan-16 12:30N 19°08' W 081°11'815.1
2020-Jan-16 12:00N 19°07' W 081°03'  
Track history (hours):
 
Tides and Currents Weather Stations Pressure Air Temp Water Temp Dewpoint Dewpoint Depression Visibility Wind Speed Wind Dir Waves Ship Positions

Oasis of the Seas

Last reported at 2020-Jan-24 00:04 UTC. Time now 2020-Jan-24 02:10 UTC.
Position N 18°10' W 063°25'.

Length 58 m; draft 2.6 m.

Type: Pleasure craft. MMSI: 311020600.

Date/timePositionNaut miles runAvg speedWind from/ knotsBaromVisibWave heightAir tempDewpointWater temp
2020-Jan-24 00:04N 18°10' W 063°25'1220.0
2020-Jan-23 23:29N 18°03' W 063°15'12 6.9
2020-Jan-23 21:46N 18°01' W 063°03'0 0.0
2020-Jan-23 16:22N 18°01' W 063°03'0 0.0
2020-Jan-23 15:22N 18°01' W 063°03'1410.2
2020-Jan-23 13:58N 18°01' W 063°18'9222.9
2020-Jan-23 09:58N 18°10' W 064°54'  
2020-Jan-20 01:21N 25°40' W 079°57'515.2
2020-Jan-20 01:00N 25°43' W 080°02'8 5.0
2020-Jan-19 23:29N 25°46' W 080°09'0 0.0
2020-Jan-19 20:58N 25°46' W 080°09'0 0.0
2020-Jan-19 18:58N 25°46' W 080°09'0 0.0
2020-Jan-19 18:28N 25°46' W 080°09'0 0.0
2020-Jan-19 16:28N 25°46' W 080°09'0 0.0
2020-Jan-19 12:58N 25°46' W 080°09'0 0.0
2020-Jan-19 10:52N 25°46' W 080°09'0 0.0
2020-Jan-19 10:22N 25°46' W 080°09'0 0.0
2020-Jan-19 09:52N 25°46' W 080°09'0 0.0
2020-Jan-19 08:30N 25°46' W 080°09'13 6.5
2020-Jan-19 06:30N 25°42' W 079°56'49016.4
2020-Jan-18 00:34N 20°39' W 086°54'1018.0
2020-Jan-18 00:00N 20°30' W 086°59'1 0.4
2020-Jan-17 19:58N 20°29' W 086°59'0 0.0
2020-Jan-17 18:28N 20°29' W 086°59'0 0.0
2020-Jan-17 17:28N 20°29' W 086°59'0 0.0
2020-Jan-17 16:28N 20°29' W 086°59'0 0.0
2020-Jan-17 14:58N 20°29' W 086°59'9 2.6
2020-Jan-17 11:30N 20°37' W 086°55'32714.6
2020-Jan-16 13:00N 19°09' W 081°19'815.9
2020-Jan-16 12:30N 19°08' W 081°11'815.1
2020-Jan-16 12:00N 19°07' W 081°03'  

Dump ship's entire track history